sensor_id;sensor_type;location;lat;lon;timestamp;temperature;humidity
6986;DHT22;3533;51.246;6.850;2023-02-12T00:00:08;19.60;37.40
6986;DHT22;3533;51.246;6.850;2023-02-12T00:02:34;19.60;37.50
6986;DHT22;3533;51.246;6.850;2023-02-12T00:04:59;19.60;37.40
6986;DHT22;3533;51.246;6.850;2023-02-12T00:07:28;19.60;37.50
6986;DHT22;3533;51.246;6.850;2023-02-12T00:09:53;19.50;37.30
6986;DHT22;3533;51.246;6.850;2023-02-12T00:12:19;19.50;37.40
6986;DHT22;3533;51.246;6.850;2023-02-12T00:14:44;19.50;37.30
6986;DHT22;3533;51.246;6.850;2023-02-12T00:17:10;19.50;37.30
6986;DHT22;3533;51.246;6.850;2023-02-12T00:19:35;19.60;37.50
6986;DHT22;3533;51.246;6.850;2023-02-12T00:22:01;19.60;37.40
6986;DHT22;3533;51.246;6.850;2023-02-12T00:24:27;19.50;37.30
6986;DHT22;3533;51.246;6.850;2023-02-12T00:26:52;19.50;37.30
6986;DHT22;3533;51.246;6.850;2023-02-12T00:29:18;19.50;37.30
6986;DHT22;3533;51.246;6.850;2023-02-12T00:31:43;19.50;37.30
6986;DHT22;3533;51.246;6.850;2023-02-12T00:34:12;19.50;37.40
6986;DHT22;3533;51.246;6.850;2023-02-12T00:36:38;19.50;37.30
6986;DHT22;3533;51.246;6.850;2023-02-12T00:39:04;19.50;37.40
6986;DHT22;3533;51.246;6.850;2023-02-12T00:41:29;19.50;37.30
6986;DHT22;3533;51.246;6.850;2023-02-12T00:43:55;19.50;37.30
6986;DHT22;3533;51.246;6.850;2023-02-12T00:46:21;19.50;37.30
6986;DHT22;3533;51.246;6.850;2023-02-12T00:48:47;19.50;37.40
6986;DHT22;3533;51.246;6.850;2023-02-12T00:51:12;19.50;37.30
6986;DHT22;3533;51.246;6.850;2023-02-12T00:53:38;19.50;37.40
6986;DHT22;3533;51.246;6.850;2023-02-12T00:56:04;19.50;37.40
6986;DHT22;3533;51.246;6.850;2023-02-12T00:58:30;19.50;37.40
6986;DHT22;3533;51.246;6.850;2023-02-12T01:00:56;19.50;37.30
6986;DHT22;3533;51.246;6.850;2023-02-12T01:03:22;19.50;37.30
6986;DHT22;3533;51.246;6.850;2023-02-12T01:05:48;19.50;37.40
6986;DHT22;3533;51.246;6.850;2023-02-12T01:08:15;19.50;37.30
6986;DHT22;3533;51.246;6.850;2023-02-12T01:10:41;19.50;37.30
6986;DHT22;3533;51.246;6.850;2023-02-12T01:13:13;19.50;37.40
6986;DHT22;3533;51.246;6.850;2023-02-12T01:15:39;19.50;37.40
6986;DHT22;3533;51.246;6.850;2023-02-12T01:18:05;19.50;37.40
6986;DHT22;3533;51.246;6.850;2023-02-12T01:20:30;19.50;37.40
6986;DHT22;3533;51.246;6.850;2023-02-12T01:22:56;19.50;37.30
6986;DHT22;3533;51.246;6.850;2023-02-12T01:25:21;19.50;37.40
6986;DHT22;3533;51.246;6.850;2023-02-12T01:27:47;19.50;37.50
6986;DHT22;3533;51.246;6.850;2023-02-12T01:30:13;19.50;37.50
6986;DHT22;3533;51.246;6.850;2023-02-12T01:32:39;19.50;37.40
6986;DHT22;3533;51.246;6.850;2023-02-12T01:35:06;19.50;37.50
6986;DHT22;3533;51.246;6.850;2023-02-12T01:37:34;19.50;37.50
6986;DHT22;3533;51.246;6.850;2023-02-12T01:40:00;19.50;37.50
6986;DHT22;3533;51.246;6.850;2023-02-12T01:42:26;19.50;37.50
6986;DHT22;3533;51.246;6.850;2023-02-12T01:47:40;19.50;37.50
6986;DHT22;3533;51.246;6.850;2023-02-12T01:50:07;19.50;37.50
6986;DHT22;3533;51.246;6.850;2023-02-12T01:52:37;19.50;37.50
6986;DHT22;3533;51.246;6.850;2023-02-12T01:55:06;19.50;37.60
6986;DHT22;3533;51.246;6.850;2023-02-12T01:57:35;19.50;37.50
6986;DHT22;3533;51.246;6.850;2023-02-12T02:00:06;19.40;37.40
6986;DHT22;3533;51.246;6.850;2023-02-12T02:02:33;19.50;37.50
6986;DHT22;3533;51.246;6.850;2023-02-12T02:05:01;19.50;37.50
6986;DHT22;3533;51.246;6.850;2023-02-12T02:07:27;19.50;37.50
6986;DHT22;3533;51.246;6.850;2023-02-12T02:09:54;19.50;37.40
6986;DHT22;3533;51.246;6.850;2023-02-12T02:12:20;19.50;37.50
6986;DHT22;3533;51.246;6.850;2023-02-12T02:15:05;19.50;37.50
6986;DHT22;3533;51.246;6.850;2023-02-12T02:17:50;19.50;37.50
6986;DHT22;3533;51.246;6.850;2023-02-12T02:29:03;19.50;37.40
6986;DHT22;3533;51.246;6.850;2023-02-12T02:31:49;19.50;37.50
6986;DHT22;3533;51.246;6.850;2023-02-12T02:34:37;19.40;37.40
6986;DHT22;3533;51.246;6.850;2023-02-12T02:47:12;19.40;37.50
6986;DHT22;3533;51.246;6.850;2023-02-12T02:49:54;19.40;37.50
6986;DHT22;3533;51.246;6.850;2023-02-12T02:52:35;19.40;37.50
6986;DHT22;3533;51.246;6.850;2023-02-12T02:55:06;19.40;37.40
6986;DHT22;3533;51.246;6.850;2023-02-12T02:57:49;19.40;37.50
6986;DHT22;3533;51.246;6.850;2023-02-12T03:00:38;19.40;37.50
6986;DHT22;3533;51.246;6.850;2023-02-12T03:03:25;19.40;37.50
6986;DHT22;3533;51.246;6.850;2023-02-12T03:05:57;19.40;37.40
6986;DHT22;3533;51.246;6.850;2023-02-12T03:08:38;19.40;37.50
6986;DHT22;3533;51.246;6.850;2023-02-12T03:11:21;19.40;37.50
6986;DHT22;3533;51.246;6.850;2023-02-12T03:14:09;19.40;37.50
6986;DHT22;3533;51.246;6.850;2023-02-12T03:16:41;19.40;37.50
6986;DHT22;3533;51.246;6.850;2023-02-12T03:19:13;19.40;37.50
6986;DHT22;3533;51.246;6.850;2023-02-12T03:22:05;19.40;37.50
6986;DHT22;3533;51.246;6.850;2023-02-12T03:24:39;19.40;37.50
6986;DHT22;3533;51.246;6.850;2023-02-12T03:27:16;19.40;37.50
6986;DHT22;3533;51.246;6.850;2023-02-12T03:29:42;19.40;37.60
6986;DHT22;3533;51.246;6.850;2023-02-12T03:32:36;19.40;37.50
6986;DHT22;3533;51.246;6.850;2023-02-12T03:35:24;19.40;37.50
6986;DHT22;3533;51.246;6.850;2023-02-12T03:38:09;19.40;37.60
6986;DHT22;3533;51.246;6.850;2023-02-12T03:40:49;19.40;37.50
6986;DHT22;3533;51.246;6.850;2023-02-12T03:43:22;19.40;37.50
6986;DHT22;3533;51.246;6.850;2023-02-12T03:46:01;19.40;37.50
6986;DHT22;3533;51.246;6.850;2023-02-12T03:48:45;19.40;37.50
6986;DHT22;3533;51.246;6.850;2023-02-12T03:53:47;19.40;37.50
6986;DHT22;3533;51.246;6.850;2023-02-12T03:56:19;19.40;37.60
6986;DHT22;3533;51.246;6.850;2023-02-12T03:58:46;19.40;37.50
6986;DHT22;3533;51.246;6.850;2023-02-12T04:01:12;19.40;37.60
6986;DHT22;3533;51.246;6.850;2023-02-12T04:03:39;19.40;37.50
6986;DHT22;3533;51.246;6.850;2023-02-12T04:06:18;19.40;37.50
6986;DHT22;3533;51.246;6.850;2023-02-12T04:08:44;19.40;37.50
6986;DHT22;3533;51.246;6.850;2023-02-12T04:11:27;19.40;37.60
6986;DHT22;3533;51.246;6.850;2023-02-12T04:16:46;19.40;37.60
6986;DHT22;3533;51.246;6.850;2023-02-12T04:19:18;19.40;37.50
6986;DHT22;3533;51.246;6.850;2023-02-12T04:27:09;19.40;37.60
6986;DHT22;3533;51.246;6.850;2023-02-12T04:29:47;19.40;37.60
6986;DHT22;3533;51.246;6.850;2023-02-12T04:32:35;19.40;37.60
6986;DHT22;3533;51.246;6.850;2023-02-12T04:35:07;19.40;37.50
6986;DHT22;3533;51.246;6.850;2023-02-12T04:37:42;19.40;37.60
6986;DHT22;3533;51.246;6.850;2023-02-12T04:40:15;19.40;37.50
6986;DHT22;3533;51.246;6.850;2023-02-12T04:42:47;19.40;37.60
6986;DHT22;3533;51.246;6.850;2023-02-12T04:45:17;19.40;37.50
6986;DHT22;3533;51.246;6.850;2023-02-12T04:47:44;19.40;37.50
6986;DHT22;3533;51.246;6.850;2023-02-12T04:50:10;19.40;37.40
6986;DHT22;3533;51.246;6.850;2023-02-12T04:52:36;19.40;37.40
6986;DHT22;3533;51.246;6.850;2023-02-12T04:55:01;19.50;37.40
6986;DHT22;3533;51.246;6.850;2023-02-12T04:57:27;19.50;37.50
6986;DHT22;3533;51.246;6.850;2023-02-12T04:59:53;19.50;37.40
6986;DHT22;3533;51.246;6.850;2023-02-12T05:02:18;19.50;37.30
6986;DHT22;3533;51.246;6.850;2023-02-12T05:04:44;19.50;37.80
6986;DHT22;3533;51.246;6.850;2023-02-12T05:07:10;19.50;37.30
6986;DHT22;3533;51.246;6.850;2023-02-12T05:09:36;19.50;37.30
6986;DHT22;3533;51.246;6.850;2023-02-12T05:12:02;19.50;37.20
6986;DHT22;3533;51.246;6.850;2023-02-12T05:14:27;19.60;37.30
6986;DHT22;3533;51.246;6.850;2023-02-12T05:16:53;19.60;37.20
6986;DHT22;3533;51.246;6.850;2023-02-12T05:19:19;19.60;37.20
6986;DHT22;3533;51.246;6.850;2023-02-12T05:21:44;19.60;37.20
6986;DHT22;3533;51.246;6.850;2023-02-12T05:24:10;19.70;37.30
6986;DHT22;3533;51.246;6.850;2023-02-12T05:26:36;19.70;37.30
6986;DHT22;3533;51.246;6.850;2023-02-12T05:29:02;19.70;37.30
6986;DHT22;3533;51.246;6.850;2023-02-12T05:31:28;19.70;37.30
6986;DHT22;3533;51.246;6.850;2023-02-12T05:33:53;19.70;37.20
6986;DHT22;3533;51.246;6.850;2023-02-12T05:36:21;19.80;37.20
6986;DHT22;3533;51.246;6.850;2023-02-12T05:38:48;19.80;37.30
6986;DHT22;3533;51.246;6.850;2023-02-12T05:41:20;19.80;37.20
6986;DHT22;3533;51.246;6.850;2023-02-12T05:43:46;19.80;37.20
6986;DHT22;3533;51.246;6.850;2023-02-12T05:46:12;19.80;37.10
6986;DHT22;3533;51.246;6.850;2023-02-12T05:48:39;19.80;37.10
6986;DHT22;3533;51.246;6.850;2023-02-12T05:51:11;19.80;37.30
6986;DHT22;3533;51.246;6.850;2023-02-12T05:53:38;19.90;37.20
6986;DHT22;3533;51.246;6.850;2023-02-12T05:56:14;19.80;37.20
6986;DHT22;3533;51.246;6.850;2023-02-12T05:58:41;19.90;37.30
6986;DHT22;3533;51.246;6.850;2023-02-12T06:01:10;19.90;37.30
6986;DHT22;3533;51.246;6.850;2023-02-12T06:03:35;19.90;37.30
6986;DHT22;3533;51.246;6.850;2023-02-12T06:06:01;19.80;37.20
6986;DHT22;3533;51.246;6.850;2023-02-12T06:08:26;19.80;37.30
6986;DHT22;3533;51.246;6.850;2023-02-12T06:10:52;19.80;37.30
6986;DHT22;3533;51.246;6.850;2023-02-12T06:13:18;19.80;37.30
6986;DHT22;3533;51.246;6.850;2023-02-12T06:15:43;19.80;37.30
6986;DHT22;3533;51.246;6.850;2023-02-12T06:18:09;19.80;37.40
6986;DHT22;3533;51.246;6.850;2023-02-12T06:20:36;19.80;37.40
6986;DHT22;3533;51.246;6.850;2023-02-12T06:23:02;19.80;37.30
6986;DHT22;3533;51.246;6.850;2023-02-12T06:25:28;19.80;37.30
6986;DHT22;3533;51.246;6.850;2023-02-12T06:27:53;19.90;37.50
6986;DHT22;3533;51.246;6.850;2023-02-12T06:30:19;19.90;37.50
6986;DHT22;3533;51.246;6.850;2023-02-12T06:32:48;19.90;37.40
6986;DHT22;3533;51.246;6.850;2023-02-12T06:35:14;19.90;37.50
6986;DHT22;3533;51.246;6.850;2023-02-12T06:37:39;19.90;37.50
6986;DHT22;3533;51.246;6.850;2023-02-12T06:40:05;19.90;37.40
6986;DHT22;3533;51.246;6.850;2023-02-12T06:42:31;19.90;37.40
6986;DHT22;3533;51.246;6.850;2023-02-12T06:44:57;19.90;37.40
6986;DHT22;3533;51.246;6.850;2023-02-12T06:47:22;19.90;37.30
6986;DHT22;3533;51.246;6.850;2023-02-12T06:49:48;19.90;37.30
6986;DHT22;3533;51.246;6.850;2023-02-12T06:52:13;19.90;37.30
6986;DHT22;3533;51.246;6.850;2023-02-12T06:54:39;19.90;37.30
6986;DHT22;3533;51.246;6.850;2023-02-12T06:57:04;19.80;37.10
6986;DHT22;3533;51.246;6.850;2023-02-12T06:59:30;19.90;37.20
6986;DHT22;3533;51.246;6.850;2023-02-12T07:01:56;19.90;37.20
6986;DHT22;3533;51.246;6.850;2023-02-12T07:04:21;19.90;37.20
6986;DHT22;3533;51.246;6.850;2023-02-12T07:06:48;19.90;37.10
6986;DHT22;3533;51.246;6.850;2023-02-12T07:09:13;19.90;37.10
6986;DHT22;3533;51.246;6.850;2023-02-12T07:11:39;19.90;37.10
6986;DHT22;3533;51.246;6.850;2023-02-12T07:14:05;19.90;37.20
6986;DHT22;3533;51.246;6.850;2023-02-12T07:16:31;19.90;37.10
6986;DHT22;3533;51.246;6.850;2023-02-12T07:18:56;19.90;37.10
6986;DHT22;3533;51.246;6.850;2023-02-12T07:21:22;19.90;37.10
6986;DHT22;3533;51.246;6.850;2023-02-12T07:23:50;19.90;37.10
6986;DHT22;3533;51.246;6.850;2023-02-12T07:26:16;19.90;37.00
6986;DHT22;3533;51.246;6.850;2023-02-12T07:28:42;19.90;37.10
6986;DHT22;3533;51.246;6.850;2023-02-12T07:31:10;19.90;37.00
6986;DHT22;3533;51.246;6.850;2023-02-12T07:33:37;20.00;37.10
6986;DHT22;3533;51.246;6.850;2023-02-12T07:36:05;20.00;37.10
6986;DHT22;3533;51.246;6.850;2023-02-12T07:38:31;20.00;37.10
6986;DHT22;3533;51.246;6.850;2023-02-12T07:41:17;20.00;37.10
6986;DHT22;3533;51.246;6.850;2023-02-12T07:43:45;20.00;37.00
6986;DHT22;3533;51.246;6.850;2023-02-12T07:46:14;20.00;37.20
6986;DHT22;3533;51.246;6.850;2023-02-12T07:48:41;20.00;37.10
6986;DHT22;3533;51.246;6.850;2023-02-12T07:51:10;20.00;37.10
6986;DHT22;3533;51.246;6.850;2023-02-12T07:53:37;20.00;37.10
6986;DHT22;3533;51.246;6.850;2023-02-12T07:56:11;20.00;37.10
6986;DHT22;3533;51.246;6.850;2023-02-12T07:58:38;20.00;37.10
6986;DHT22;3533;51.246;6.850;2023-02-12T08:01:19;20.00;37.10
6986;DHT22;3533;51.246;6.850;2023-02-12T08:03:46;20.00;37.10
6986;DHT22;3533;51.246;6.850;2023-02-12T08:06:20;20.00;37.10
6986;DHT22;3533;51.246;6.850;2023-02-12T08:08:49;20.00;37.00
6986;DHT22;3533;51.246;6.850;2023-02-12T08:11:16;20.00;37.10
6986;DHT22;3533;51.246;6.850;2023-02-12T08:13:43;20.00;37.10
6986;DHT22;3533;51.246;6.850;2023-02-12T08:16:11;20.00;37.10
6986;DHT22;3533;51.246;6.850;2023-02-12T08:18:36;20.00;37.20
6986;DHT22;3533;51.246;6.850;2023-02-12T08:21:07;20.00;37.10
6986;DHT22;3533;51.246;6.850;2023-02-12T08:23:34;19.90;37.00
6986;DHT22;3533;51.246;6.850;2023-02-12T08:26:07;20.00;37.20
6986;DHT22;3533;51.246;6.850;2023-02-12T08:28:33;20.00;37.10
6986;DHT22;3533;51.246;6.850;2023-02-12T08:31:01;20.00;37.20
6986;DHT22;3533;51.246;6.850;2023-02-12T08:33:27;20.00;37.20
6986;DHT22;3533;51.246;6.850;2023-02-12T08:36:08;20.00;37.20
6986;DHT22;3533;51.246;6.850;2023-02-12T08:38:35;20.00;37.20
6986;DHT22;3533;51.246;6.850;2023-02-12T08:41:06;19.90;37.20
6986;DHT22;3533;51.246;6.850;2023-02-12T08:43:32;20.00;37.20
6986;DHT22;3533;51.246;6.850;2023-02-12T08:46:03;19.90;37.20
6986;DHT22;3533;51.246;6.850;2023-02-12T08:48:29;19.90;37.20
6986;DHT22;3533;51.246;6.850;2023-02-12T08:50:54;19.90;37.20
6986;DHT22;3533;51.246;6.850;2023-02-12T08:53:20;19.90;37.20
6986;DHT22;3533;51.246;6.850;2023-02-12T08:55:49;19.90;37.20
6986;DHT22;3533;51.246;6.850;2023-02-12T08:58:15;19.90;37.20
6986;DHT22;3533;51.246;6.850;2023-02-12T09:00:41;19.90;37.20
6986;DHT22;3533;51.246;6.850;2023-02-12T09:03:06;19.90;37.20
6986;DHT22;3533;51.246;6.850;2023-02-12T09:05:32;19.90;37.20
6986;DHT22;3533;51.246;6.850;2023-02-12T09:07:57;19.90;37.20
6986;DHT22;3533;51.246;6.850;2023-02-12T09:10:23;19.90;37.20
6986;DHT22;3533;51.246;6.850;2023-02-12T09:12:49;19.90;37.30
6986;DHT22;3533;51.246;6.850;2023-02-12T09:15:14;19.90;37.30
6986;DHT22;3533;51.246;6.850;2023-02-12T09:17:40;19.90;37.20
6986;DHT22;3533;51.246;6.850;2023-02-12T09:20:08;19.90;37.20
6986;DHT22;3533;51.246;6.850;2023-02-12T09:22:33;19.90;37.20
6986;DHT22;3533;51.246;6.850;2023-02-12T09:25:03;19.90;37.30
6986;DHT22;3533;51.246;6.850;2023-02-12T09:27:29;19.90;37.30
6986;DHT22;3533;51.246;6.850;2023-02-12T09:29:55;19.90;37.30
6986;DHT22;3533;51.246;6.850;2023-02-12T09:32:20;19.90;37.30
6986;DHT22;3533;51.246;6.850;2023-02-12T09:34:46;19.90;37.30
6986;DHT22;3533;51.246;6.850;2023-02-12T09:37:11;19.90;37.30
6986;DHT22;3533;51.246;6.850;2023-02-12T09:39:37;19.90;38.10
6986;DHT22;3533;51.246;6.850;2023-02-12T09:42:14;19.90;37.30
6986;DHT22;3533;51.246;6.850;2023-02-12T09:45:01;19.90;37.30
6986;DHT22;3533;51.246;6.850;2023-02-12T09:47:38;19.90;37.40
6986;DHT22;3533;51.246;6.850;2023-02-12T09:53:09;19.90;37.40
6986;DHT22;3533;51.246;6.850;2023-02-12T09:55:36;19.90;37.50
6986;DHT22;3533;51.246;6.850;2023-02-12T09:58:10;19.90;37.30
6986;DHT22;3533;51.246;6.850;2023-02-12T10:00:38;19.90;37.50
6986;DHT22;3533;51.246;6.850;2023-02-12T10:03:12;19.90;37.50
6986;DHT22;3533;51.246;6.850;2023-02-12T10:05:42;19.90;37.40
6986;DHT22;3533;51.246;6.850;2023-02-12T10:08:31;19.90;37.40
6986;DHT22;3533;51.246;6.850;2023-02-12T10:17:12;19.90;37.40
6986;DHT22;3533;51.246;6.850;2023-02-12T10:20:18;19.90;37.50
6986;DHT22;3533;51.246;6.850;2023-02-12T10:23:03;19.90;37.40
6986;DHT22;3533;51.246;6.850;2023-02-12T10:25:58;19.90;37.30
6986;DHT22;3533;51.246;6.850;2023-02-12T10:28:27;19.90;37.30
6986;DHT22;3533;51.246;6.850;2023-02-12T10:30:58;19.90;37.30
6986;DHT22;3533;51.246;6.850;2023-02-12T10:33:41;20.00;37.30
6986;DHT22;3533;51.246;6.850;2023-02-12T10:36:41;20.00;37.20
6986;DHT22;3533;51.246;6.850;2023-02-12T10:41:54;20.10;37.20
6986;DHT22;3533;51.246;6.850;2023-02-12T10:44:20;20.10;37.10
6986;DHT22;3533;51.246;6.850;2023-02-12T10:46:46;20.10;37.20
6986;DHT22;3533;51.246;6.850;2023-02-12T10:49:16;20.10;37.10
6986;DHT22;3533;51.246;6.850;2023-02-12T10:54:47;20.10;37.10
6986;DHT22;3533;51.246;6.850;2023-02-12T10:59:41;20.10;37.10
6986;DHT22;3533;51.246;6.850;2023-02-12T11:02:36;20.10;37.10
6986;DHT22;3533;51.246;6.850;2023-02-12T11:05:22;20.10;37.10
6986;DHT22;3533;51.246;6.850;2023-02-12T11:07:49;20.10;37.20
6986;DHT22;3533;51.246;6.850;2023-02-12T11:10:31;20.10;37.00
6986;DHT22;3533;51.246;6.850;2023-02-12T11:12:58;20.00;36.90
6986;DHT22;3533;51.246;6.850;2023-02-12T11:15:26;20.00;36.80
6986;DHT22;3533;51.246;6.850;2023-02-12T11:20:32;20.00;37.30
6986;DHT22;3533;51.246;6.850;2023-02-12T11:23:03;20.00;38.30
6986;DHT22;3533;51.246;6.850;2023-02-12T11:28:17;20.00;35.90
6986;DHT22;3533;51.246;6.850;2023-02-12T11:30:53;20.00;36.50
6986;DHT22;3533;51.246;6.850;2023-02-12T11:38:23;19.90;36.40
6986;DHT22;3533;51.246;6.850;2023-02-12T11:40:51;19.90;36.40
6986;DHT22;3533;51.246;6.850;2023-02-12T11:43:18;19.90;36.50
6986;DHT22;3533;51.246;6.850;2023-02-12T11:45:47;20.00;36.50
6986;DHT22;3533;51.246;6.850;2023-02-12T11:48:19;20.00;36.80
6986;DHT22;3533;51.246;6.850;2023-02-12T11:50:48;20.00;36.40
6986;DHT22;3533;51.246;6.850;2023-02-12T11:53:28;20.00;36.40
6986;DHT22;3533;51.246;6.850;2023-02-12T11:56:03;20.00;36.30
6986;DHT22;3533;51.246;6.850;2023-02-12T11:58:29;20.00;36.30
6986;DHT22;3533;51.246;6.850;2023-02-12T12:01:15;20.10;36.30
6986;DHT22;3533;51.246;6.850;2023-02-12T12:06:33;20.10;37.20
6986;DHT22;3533;51.246;6.850;2023-02-12T12:09:14;20.10;36.50
6986;DHT22;3533;51.246;6.850;2023-02-12T12:12:03;20.10;36.40
6986;DHT22;3533;51.246;6.850;2023-02-12T12:14:49;20.10;36.50
6986;DHT22;3533;51.246;6.850;2023-02-12T12:17:48;20.10;36.50
6986;DHT22;3533;51.246;6.850;2023-02-12T12:20:40;20.00;36.40
6986;DHT22;3533;51.246;6.850;2023-02-12T12:23:17;20.10;36.60
6986;DHT22;3533;51.246;6.850;2023-02-12T12:25:48;20.00;36.50
6986;DHT22;3533;51.246;6.850;2023-02-12T12:28:41;20.10;36.60
6986;DHT22;3533;51.246;6.850;2023-02-12T12:39:44;20.10;36.60
6986;DHT22;3533;51.246;6.850;2023-02-12T12:51:11;20.20;36.70
6986;DHT22;3533;51.246;6.850;2023-02-12T13:13:30;20.20;36.80
6986;DHT22;3533;51.246;6.850;2023-02-12T13:18:58;20.20;36.80
6986;DHT22;3533;51.246;6.850;2023-02-12T13:21:40;20.20;36.90
6986;DHT22;3533;51.246;6.850;2023-02-12T13:24:44;20.20;36.90
6986;DHT22;3533;51.246;6.850;2023-02-12T13:27:18;20.20;36.90
6986;DHT22;3533;51.246;6.850;2023-02-12T13:30:35;20.30;37.10
6986;DHT22;3533;51.246;6.850;2023-02-12T13:32:41;20.30;37.30
6986;DHT22;3533;51.246;6.850;2023-02-12T13:35:17;20.30;37.40
6986;DHT22;3533;51.246;6.850;2023-02-12T13:37:47;20.30;37.80
6986;DHT22;3533;51.246;6.850;2023-02-12T13:40:22;20.30;37.60
6986;DHT22;3533;51.246;6.850;2023-02-12T13:48:39;20.40;38.10
6986;DHT22;3533;51.246;6.850;2023-02-12T13:54:20;20.40;38.30
6986;DHT22;3533;51.246;6.850;2023-02-12T13:56:56;20.50;38.50
6986;DHT22;3533;51.246;6.850;2023-02-12T14:01:58;20.50;38.80
6986;DHT22;3533;51.246;6.850;2023-02-12T14:07:05;20.50;39.10
6986;DHT22;3533;51.246;6.850;2023-02-12T14:17:53;20.60;39.40
6986;DHT22;3533;51.246;6.850;2023-02-12T14:20:31;20.60;39.40
6986;DHT22;3533;51.246;6.850;2023-02-12T14:23:18;20.60;39.50
6986;DHT22;3533;51.246;6.850;2023-02-12T14:26:04;20.60;39.60
6986;DHT22;3533;51.246;6.850;2023-02-12T14:28:33;20.60;39.50
6986;DHT22;3533;51.246;6.850;2023-02-12T14:31:33;20.60;39.60
6986;DHT22;3533;51.246;6.850;2023-02-12T14:41:47;20.60;40.30
6986;DHT22;3533;51.246;6.850;2023-02-12T14:49:18;20.60;39.40
6986;DHT22;3533;51.246;6.850;2023-02-12T14:52:03;20.60;39.40
6986;DHT22;3533;51.246;6.850;2023-02-12T14:57:28;20.60;39.40
6986;DHT22;3533;51.246;6.850;2023-02-12T15:00:09;20.60;39.30
6986;DHT22;3533;51.246;6.850;2023-02-12T15:02:39;20.60;39.30
6986;DHT22;3533;51.246;6.850;2023-02-12T15:05:14;20.60;39.20
6986;DHT22;3533;51.246;6.850;2023-02-12T15:08:06;20.60;39.20
6986;DHT22;3533;51.246;6.850;2023-02-12T15:10:40;20.60;39.10
6986;DHT22;3533;51.246;6.850;2023-02-12T15:13:26;20.60;39.10
6986;DHT22;3533;51.246;6.850;2023-02-12T15:15:55;20.60;39.10
6986;DHT22;3533;51.246;6.850;2023-02-12T15:18:49;20.50;38.90
6986;DHT22;3533;51.246;6.850;2023-02-12T15:21:24;20.50;38.90
6986;DHT22;3533;51.246;6.850;2023-02-12T15:26:38;20.50;38.80
6986;DHT22;3533;51.246;6.850;2023-02-12T15:29:04;20.50;38.80
6986;DHT22;3533;51.246;6.850;2023-02-12T15:31:31;20.50;38.70
6986;DHT22;3533;51.246;6.850;2023-02-12T15:33:59;20.50;38.60
6986;DHT22;3533;51.246;6.850;2023-02-12T15:36:28;20.50;38.60
6986;DHT22;3533;51.246;6.850;2023-02-12T15:38:57;20.50;38.50
6986;DHT22;3533;51.246;6.850;2023-02-12T15:41:43;20.50;38.50
6986;DHT22;3533;51.246;6.850;2023-02-12T15:44:21;20.60;38.50
6986;DHT22;3533;51.246;6.850;2023-02-12T15:47:02;20.50;38.50
6986;DHT22;3533;51.246;6.850;2023-02-12T15:49:34;20.50;38.50
6986;DHT22;3533;51.246;6.850;2023-02-12T15:52:03;20.50;38.50
6986;DHT22;3533;51.246;6.850;2023-02-12T15:54:30;20.50;38.60
6986;DHT22;3533;51.246;6.850;2023-02-12T15:56:56;20.50;39.30
6986;DHT22;3533;51.246;6.850;2023-02-12T15:59:26;20.50;38.60
6986;DHT22;3533;51.246;6.850;2023-02-12T16:01:59;20.50;38.50
6986;DHT22;3533;51.246;6.850;2023-02-12T16:04:30;20.60;38.70
6986;DHT22;3533;51.246;6.850;2023-02-12T16:06:57;20.60;38.70
6986;DHT22;3533;51.246;6.850;2023-02-12T16:09:31;20.50;38.70
6986;DHT22;3533;51.246;6.850;2023-02-12T16:12:00;20.60;38.80
6986;DHT22;3533;51.246;6.850;2023-02-12T16:14:40;20.60;39.00
6986;DHT22;3533;51.246;6.850;2023-02-12T16:17:22;20.60;39.00
6986;DHT22;3533;51.246;6.850;2023-02-12T16:22:38;20.60;39.20
6986;DHT22;3533;51.246;6.850;2023-02-12T16:25:17;20.60;39.30
6986;DHT22;3533;51.246;6.850;2023-02-12T16:28:14;20.60;39.40
6986;DHT22;3533;51.246;6.850;2023-02-12T16:30:42;20.60;39.40
6986;DHT22;3533;51.246;6.850;2023-02-12T16:36:04;20.60;39.40
6986;DHT22;3533;51.246;6.850;2023-02-12T16:46:50;20.50;39.10
6986;DHT22;3533;51.246;6.850;2023-02-12T16:49:20;20.50;39.10
6986;DHT22;3533;51.246;6.850;2023-02-12T16:51:46;20.50;39.00
6986;DHT22;3533;51.246;6.850;2023-02-12T16:54:38;20.50;38.90
6986;DHT22;3533;51.246;6.850;2023-02-12T16:57:03;20.50;38.90
6986;DHT22;3533;51.246;6.850;2023-02-12T16:59:29;20.50;38.80
6986;DHT22;3533;51.246;6.850;2023-02-12T17:04:22;20.50;38.80
6986;DHT22;3533;51.246;6.850;2023-02-12T17:06:47;20.50;38.70
6986;DHT22;3533;51.246;6.850;2023-02-12T17:09:13;20.50;38.70
6986;DHT22;3533;51.246;6.850;2023-02-12T17:11:38;20.50;38.70
6986;DHT22;3533;51.246;6.850;2023-02-12T17:14:04;20.50;38.60
6986;DHT22;3533;51.246;6.850;2023-02-12T17:16:30;20.50;38.60
6986;DHT22;3533;51.246;6.850;2023-02-12T17:18:55;20.50;38.60
6986;DHT22;3533;51.246;6.850;2023-02-12T17:21:24;20.50;38.60
6986;DHT22;3533;51.246;6.850;2023-02-12T17:23:51;20.50;38.50
6986;DHT22;3533;51.246;6.850;2023-02-12T17:26:21;20.50;38.60
6986;DHT22;3533;51.246;6.850;2023-02-12T17:28:47;20.50;38.50
6986;DHT22;3533;51.246;6.850;2023-02-12T17:31:13;20.50;38.50
6986;DHT22;3533;51.246;6.850;2023-02-12T17:33:38;20.50;38.50
6986;DHT22;3533;51.246;6.850;2023-02-12T17:36:04;20.50;38.60
6986;DHT22;3533;51.246;6.850;2023-02-12T17:38:30;20.50;38.60
6986;DHT22;3533;51.246;6.850;2023-02-12T17:40:55;20.50;38.60
6986;DHT22;3533;51.246;6.850;2023-02-12T17:43:21;20.50;38.60
6986;DHT22;3533;51.246;6.850;2023-02-12T17:45:46;20.50;38.50
6986;DHT22;3533;51.246;6.850;2023-02-12T17:48:13;20.50;38.50
6986;DHT22;3533;51.246;6.850;2023-02-12T17:50:39;20.50;38.50
6986;DHT22;3533;51.246;6.850;2023-02-12T17:53:06;20.50;38.50
6986;DHT22;3533;51.246;6.850;2023-02-12T17:55:32;20.50;38.40
6986;DHT22;3533;51.246;6.850;2023-02-12T17:57:57;20.50;38.50
6986;DHT22;3533;51.246;6.850;2023-02-12T18:00:23;20.50;38.40
6986;DHT22;3533;51.246;6.850;2023-02-12T18:02:49;20.50;38.40
6986;DHT22;3533;51.246;6.850;2023-02-12T18:05:15;20.50;38.30
6986;DHT22;3533;51.246;6.850;2023-02-12T18:07:41;20.50;38.30
6986;DHT22;3533;51.246;6.850;2023-02-12T18:10:07;20.50;38.30
6986;DHT22;3533;51.246;6.850;2023-02-12T18:12:33;20.50;38.30
6986;DHT22;3533;51.246;6.850;2023-02-12T18:15:00;20.50;38.30
6986;DHT22;3533;51.246;6.850;2023-02-12T18:17:27;20.50;38.20
6986;DHT22;3533;51.246;6.850;2023-02-12T18:19:53;20.50;38.20
6986;DHT22;3533;51.246;6.850;2023-02-12T18:22:19;20.50;38.20
6986;DHT22;3533;51.246;6.850;2023-02-12T18:24:44;20.50;38.20
6986;DHT22;3533;51.246;6.850;2023-02-12T18:27:13;20.50;38.30
6986;DHT22;3533;51.246;6.850;2023-02-12T18:29:39;20.50;38.20
6986;DHT22;3533;51.246;6.850;2023-02-12T18:32:04;20.50;38.20
6986;DHT22;3533;51.246;6.850;2023-02-12T18:34:30;20.50;38.20
6986;DHT22;3533;51.246;6.850;2023-02-12T18:36:56;20.50;38.20
6986;DHT22;3533;51.246;6.850;2023-02-12T18:39:22;20.50;38.10
6986;DHT22;3533;51.246;6.850;2023-02-12T18:41:47;20.50;38.10
6986;DHT22;3533;51.246;6.850;2023-02-12T18:44:14;20.50;38.10
6986;DHT22;3533;51.246;6.850;2023-02-12T18:46:39;20.50;38.10
6986;DHT22;3533;51.246;6.850;2023-02-12T18:49:05;20.50;38.10
6986;DHT22;3533;51.246;6.850;2023-02-12T18:51:31;20.50;38.10
6986;DHT22;3533;51.246;6.850;2023-02-12T18:54:03;20.40;38.00
6986;DHT22;3533;51.246;6.850;2023-02-12T18:56:31;20.40;38.00
6986;DHT22;3533;51.246;6.850;2023-02-12T18:58:59;20.50;38.20
6986;DHT22;3533;51.246;6.850;2023-02-12T19:01:26;20.40;38.10
6986;DHT22;3533;51.246;6.850;2023-02-12T19:03:53;20.40;38.20